createdAt,value
2023-02-11T00:00:55.191Z,101747.31
2023-02-11T00:03:21.701Z,101752.91
2023-02-11T00:05:58.307Z,101740.28
2023-02-11T00:08:24.942Z,101739.34
2023-02-11T00:10:55.838Z,101751.06
2023-02-11T00:13:23.408Z,101747.47
2023-02-11T00:15:50.409Z,101746.44
2023-02-11T00:18:17.072Z,101746.28
2023-02-11T00:20:44.186Z,101750.56
2023-02-11T00:23:10.715Z,101747.28
2023-02-11T00:25:45.336Z,101750.09
2023-02-11T00:28:12.569Z,101757.28
2023-02-11T00:30:39.236Z,101761.50
2023-02-11T00:33:05.812Z,101755.06
2023-02-11T00:35:32.400Z,101749.88
2023-02-11T00:37:58.975Z,101747.97
2023-02-11T00:40:25.493Z,101738.69
2023-02-11T00:42:52.000Z,101739.88
2023-02-11T00:45:20.943Z,101732.53
2023-02-11T00:47:47.860Z,101729.41
2023-02-11T00:50:14.427Z,101716.56
2023-02-11T00:52:40.913Z,101710.59
2023-02-11T00:55:07.797Z,101711.56
2023-02-11T00:57:34.498Z,101709.94
2023-02-11T01:00:01.048Z,101711.72
2023-02-11T01:02:27.652Z,101710.81
2023-02-11T01:04:54.326Z,101715.97
2023-02-11T01:07:20.956Z,101715.97
2023-02-11T01:09:47.448Z,101703.75
2023-02-11T01:12:13.989Z,101717.63
2023-02-11T01:14:40.597Z,101716.06
2023-02-11T01:17:07.249Z,101716.03
2023-02-11T01:19:33.779Z,101710.84
2023-02-11T01:22:00.334Z,101707.47
2023-02-11T01:24:27.000Z,101696.41
2023-02-11T01:26:53.540Z,101700.72
2023-02-11T01:29:20.054Z,101697.34
2023-02-11T01:31:46.918Z,101699.97
2023-02-11T01:34:13.553Z,101696.63
2023-02-11T01:36:40.354Z,101696.06
2023-02-11T01:39:08.559Z,101708.19
2023-02-11T01:41:35.890Z,101710.00
2023-02-11T01:44:37.963Z,101711.03
2023-02-11T01:47:06.586Z,101694.91
2023-02-11T01:49:38.498Z,101694.22
2023-02-11T01:52:19.121Z,101708.84
2023-02-11T01:55:21.705Z,101708.13
2023-02-11T01:57:53.700Z,101710.78
2023-02-11T02:00:25.324Z,101699.59
2023-02-11T02:03:15.909Z,101685.66
2023-02-11T02:05:55.595Z,101687.50
2023-02-11T02:08:43.876Z,101686.53
2023-02-11T02:11:11.102Z,101679.66
2023-02-11T02:13:37.940Z,101672.00
2023-02-11T02:16:12.467Z,101678.91
2023-02-11T02:19:00.157Z,101666.84
2023-02-11T02:22:03.534Z,101663.38
2023-02-11T02:24:49.406Z,101653.09
2023-02-11T02:27:37.695Z,101641.97
2023-02-11T02:30:42.010Z,101638.50
2023-02-11T02:33:22.475Z,101641.13
2023-02-11T02:36:05.731Z,101636.00
2023-02-11T02:38:57.778Z,101629.16
2023-02-11T02:41:30.557Z,101617.13
2023-02-11T02:43:57.372Z,101620.59
2023-02-11T02:46:33.203Z,101606.72
2023-02-11T02:49:00.173Z,101602.38
2023-02-11T02:51:48.585Z,101595.47
2023-02-11T02:54:39.401Z,101603.28
2023-02-11T02:57:39.756Z,101598.97
2023-02-11T03:00:37.536Z,101603.38
2023-02-11T03:03:49.219Z,101606.88
2023-02-11T03:06:28.836Z,101607.81
2023-02-11T03:09:05.376Z,101608.69
2023-02-11T03:11:34.072Z,101604.44
2023-02-11T03:14:03.337Z,101595.75
2023-02-11T03:16:30.907Z,101591.50
2023-02-11T03:19:06.070Z,101596.75
2023-02-11T03:21:36.112Z,101599.31
2023-02-11T03:24:07.711Z,101605.38
2023-02-11T03:26:57.702Z,101607.16
2023-02-11T03:29:33.058Z,101602.88
2023-02-11T03:32:09.045Z,101608.03
2023-02-11T03:34:38.419Z,101612.34
2023-02-11T03:37:27.095Z,101615.78
2023-02-11T03:40:03.041Z,101620.97
2023-02-11T03:42:35.958Z,101620.06
2023-02-11T03:45:12.422Z,101627.06
2023-02-11T03:47:43.641Z,101633.13
2023-02-11T03:50:12.563Z,101620.13
2023-02-11T03:52:39.372Z,101615.59
2023-02-11T03:55:17.148Z,101611.06
2023-02-11T03:57:43.738Z,101606.75
2023-02-11T04:00:11.631Z,101611.03
2023-02-11T04:02:39.812Z,101602.34
2023-02-11T04:05:08.382Z,101598.88
2023-02-11T04:07:35.050Z,101596.47
2023-02-11T04:10:01.844Z,101605.09
2023-02-11T04:12:28.338Z,101605.19
2023-02-11T04:14:54.853Z,101612.16
2023-02-11T04:17:21.392Z,101616.56
2023-02-11T04:19:47.858Z,101607.06
2023-02-11T04:22:14.418Z,101613.88
2023-02-11T04:24:41.099Z,101608.59
2023-02-11T04:27:07.615Z,101632.78
2023-02-11T04:29:34.311Z,101625.84
2023-02-11T04:32:01.034Z,101618.06
2023-02-11T04:34:27.586Z,101612.06
2023-02-11T04:36:54.141Z,101616.28
2023-02-11T04:39:20.793Z,101622.19
2023-02-11T04:41:47.343Z,101610.06
2023-02-11T04:44:13.860Z,101594.56
2023-02-11T04:46:40.862Z,101594.66
2023-02-11T04:49:07.471Z,101593.81
2023-02-11T04:51:34.017Z,101586.03
2023-02-11T04:54:00.544Z,101581.66
2023-02-11T04:56:27.096Z,101570.41
2023-02-11T04:58:53.613Z,101579.13
2023-02-11T05:01:20.275Z,101563.56
2023-02-11T05:03:46.900Z,101550.63
2023-02-11T05:06:13.624Z,101548.88
2023-02-11T05:08:40.785Z,101541.97
2023-02-11T05:11:07.986Z,101537.66
2023-02-11T05:13:34.785Z,101549.78
2023-02-11T05:16:01.336Z,101541.16
2023-02-11T05:18:27.909Z,101542.94
2023-02-11T05:20:54.428Z,101541.19
2023-02-11T05:23:20.957Z,101555.97
2023-02-11T05:25:47.482Z,101562.94
2023-02-11T05:28:14.044Z,101573.25
2023-02-11T05:30:40.657Z,101571.56
2023-02-11T05:33:07.290Z,101579.28
2023-02-11T05:35:33.996Z,101591.47
2023-02-11T05:38:00.521Z,101595.03
2023-02-11T05:40:27.056Z,101595.94
2023-02-11T05:42:53.556Z,101595.91
2023-02-11T05:45:20.043Z,101600.31
2023-02-11T05:47:46.547Z,101593.38
2023-02-11T05:50:13.045Z,101591.66
2023-02-11T05:52:39.552Z,101581.19
2023-02-11T05:55:06.655Z,101566.47
2023-02-11T05:57:34.128Z,101565.63
2023-02-11T06:00:00.611Z,101568.31
2023-02-11T06:02:27.143Z,101567.41
2023-02-11T06:04:53.715Z,101561.31
2023-02-11T06:07:20.381Z,101561.31
2023-02-11T06:09:46.840Z,101564.78
2023-02-11T06:12:13.411Z,101551.81
2023-02-11T06:14:40.038Z,101556.97
2023-02-11T06:17:06.726Z,101560.44
2023-02-11T06:19:33.812Z,101559.56
2023-02-11T06:22:00.319Z,101563.88
2023-02-11T06:24:50.995Z,101560.41
2023-02-11T06:27:13.366Z,101559.56
2023-02-11T06:29:39.908Z,101556.06
2023-02-11T06:32:06.580Z,101568.16
2023-02-11T06:34:33.135Z,101570.75
2023-02-11T06:36:59.655Z,101578.50
2023-02-11T06:39:26.236Z,101572.50
2023-02-11T06:41:52.753Z,101562.09
2023-02-11T06:44:19.240Z,101563.78
2023-02-11T06:46:45.812Z,101568.97
2023-02-11T06:49:12.517Z,101571.59
2023-02-11T06:51:39.259Z,101570.72
2023-02-11T06:54:07.054Z,101569.88
2023-02-11T06:56:34.316Z,101574.19
2023-02-11T06:59:00.704Z,101554.31
2023-02-11T07:01:28.189Z,101553.47
2023-02-11T07:03:55.034Z,101565.63
2023-02-11T07:06:24.871Z,101570.88
2023-02-11T07:08:51.526Z,101588.22
2023-02-11T07:11:24.759Z,101593.41
2023-02-11T07:13:52.904Z,101596.91
2023-02-11T07:16:20.522Z,101590.00
2023-02-11T07:18:48.153Z,101594.34
2023-02-11T07:21:19.453Z,101580.47
2023-02-11T07:23:46.458Z,101585.72
2023-02-11T07:26:16.362Z,101572.75
2023-02-11T07:28:43.918Z,101555.41
2023-02-11T07:31:15.160Z,101562.34
2023-02-11T07:33:42.293Z,101550.22
2023-02-11T07:36:10.804Z,101548.53
2023-02-11T07:38:38.149Z,101542.44
2023-02-11T07:41:07.490Z,101540.78
2023-02-11T07:43:35.487Z,101553.69
2023-02-11T07:46:07.299Z,101551.94
2023-02-11T07:48:34.438Z,101557.16
2023-02-11T07:51:14.671Z,101564.09
2023-02-11T07:53:41.721Z,101566.66
2023-02-11T16:30:45.636Z,101541.50
2023-02-11T16:33:12.217Z,101539.69
2023-02-11T16:35:38.816Z,101548.25
2023-02-11T16:38:05.362Z,101542.88
2023-02-11T16:40:32.084Z,101548.09
2023-02-11T16:42:58.562Z,101543.69
2023-02-11T16:45:25.052Z,101546.31
2023-02-11T16:47:51.611Z,101551.63
2023-02-11T16:50:23.848Z,101543.84
2023-02-11T16:52:52.341Z,101557.78
2023-02-11T16:55:21.995Z,101548.34
2023-02-11T16:57:49.058Z,101551.25
2023-02-11T17:00:16.766Z,101547.22
2023-02-11T17:02:44.087Z,101558.78
2023-02-11T17:05:23.041Z,101556.13
2023-02-11T17:07:49.882Z,101551.75
2023-02-11T17:10:19.193Z,101559.63
2023-02-11T17:12:45.865Z,101560.59
2023-02-11T17:15:12.462Z,101567.69
2023-02-11T17:17:39.089Z,101561.84
2023-02-11T17:20:07.067Z,101562.00
2023-02-11T17:22:33.712Z,101564.47
2023-02-11T17:25:00.297Z,101568.72
2023-02-11T17:27:26.790Z,101556.09
2023-02-11T17:29:53.341Z,101564.03
2023-02-11T17:32:20.005Z,101576.88
2023-02-11T17:34:46.532Z,101569.06
2023-02-11T17:37:13.063Z,101578.81
2023-02-11T17:39:40.300Z,101567.47
2023-02-11T17:42:08.694Z,101566.53
2023-02-11T17:44:35.756Z,101579.44
2023-02-11T17:47:02.155Z,101582.88
2023-02-11T17:49:28.727Z,101580.16
2023-02-11T17:51:55.355Z,101587.13
2023-02-11T17:54:21.876Z,101588.94
2023-02-11T17:56:50.780Z,101586.41
2023-02-11T17:59:17.764Z,101593.47
2023-02-11T18:01:44.262Z,101589.94
2023-02-11T18:04:14.858Z,101596.13
2023-02-11T18:06:41.425Z,101599.66
2023-02-11T18:09:08.127Z,101595.38
2023-02-11T18:11:37.252Z,101600.63
2023-02-11T18:14:05.123Z,101596.38
2023-02-11T18:16:31.677Z,101606.81
2023-02-11T18:18:58.648Z,101605.94
2023-02-11T18:21:25.166Z,101598.91
2023-02-11T18:23:51.870Z,101619.16
2023-02-11T18:26:20.265Z,101623.53
2023-02-11T18:28:46.976Z,101615.81
2023-02-11T18:31:14.388Z,101612.28
2023-02-11T18:33:42.511Z,101614.03
2023-02-11T18:36:14.738Z,101615.13
2023-02-11T18:38:44.244Z,101615.94
2023-02-11T18:41:11.522Z,101610.78
2023-02-11T18:43:38.067Z,101604.75
2023-02-11T18:46:10.104Z,101606.59
2023-02-11T18:48:37.462Z,101605.81
2023-02-11T18:51:09.874Z,101602.28
2023-02-11T18:53:36.588Z,101604.06
2023-02-11T18:56:08.096Z,101605.06
2023-02-11T18:58:34.643Z,101605.09
2023-02-11T19:01:01.266Z,101608.69
2023-02-11T19:03:27.837Z,101609.59
2023-02-11T19:05:54.688Z,101607.78
2023-02-11T19:08:21.309Z,101601.66
2023-02-11T19:10:49.407Z,101600.00
2023-02-11T19:13:15.985Z,101598.44
2023-02-11T19:15:46.862Z,101601.09
2023-02-11T19:18:15.168Z,101600.31
2023-02-11T19:20:43.153Z,101593.28
2023-02-11T19:23:10.967Z,101596.00
2023-02-11T19:25:37.886Z,101603.88
2023-02-11T19:28:04.552Z,101604.69
2023-02-11T19:30:31.167Z,101600.25
2023-02-11T19:32:57.904Z,101609.00
2023-02-11T19:35:25.544Z,101608.19
2023-02-11T19:37:52.313Z,101606.41
2023-02-11T19:40:21.250Z,101605.69
2023-02-11T19:42:48.223Z,101609.22
2023-02-11T19:45:14.832Z,101608.41
2023-02-11T19:47:41.387Z,101607.56
2023-02-11T19:50:08.828Z,101618.09
2023-02-11T19:52:38.405Z,101615.44
2023-02-11T19:55:05.480Z,101624.94
2023-02-11T19:57:32.062Z,101628.38
2023-02-11T19:59:58.832Z,101626.66
2023-02-11T20:02:25.387Z,101626.59
2023-02-11T20:04:51.922Z,101630.00
2023-02-11T20:07:18.485Z,101626.50
2023-02-11T20:09:45.027Z,101629.16
2023-02-11T20:12:12.152Z,101619.72
2023-02-11T20:14:38.897Z,101625.81
2023-02-11T20:17:05.449Z,101622.28
2023-02-11T20:19:32.095Z,101615.31
2023-02-11T20:21:58.663Z,101617.22
2023-02-11T20:24:25.483Z,101608.44
2023-02-11T20:26:56.134Z,101611.06
2023-02-11T20:29:23.780Z,101614.41
2023-02-11T20:31:50.959Z,101622.34
2023-02-11T20:34:18.373Z,101619.72
2023-02-11T20:36:51.800Z,101623.09
2023-02-11T20:39:21.743Z,101627.28
2023-02-11T20:41:49.117Z,101633.53
2023-02-11T20:44:15.735Z,101630.81
2023-02-11T20:46:48.082Z,101630.03
2023-02-11T20:49:18.945Z,101634.44
2023-02-11T20:51:45.940Z,101638.75
2023-02-11T20:54:18.292Z,101645.84
2023-02-11T20:56:48.074Z,101646.97
2023-02-11T20:59:16.730Z,101639.09
2023-02-11T21:01:46.437Z,101633.75
2023-02-11T21:04:35.456Z,101629.38
2023-02-11T21:07:02.346Z,101629.44
2023-02-11T21:09:32.145Z,101631.28
2023-02-11T21:11:59.479Z,101638.22
2023-02-11T21:14:28.441Z,101641.66
2023-02-11T21:16:55.176Z,101646.09
2023-02-11T21:19:21.819Z,101647.88
2023-02-11T21:21:49.236Z,101642.59
2023-02-11T21:24:15.871Z,101647.84
2023-02-11T21:26:42.683Z,101636.50
2023-02-11T21:29:09.779Z,101646.94
2023-02-11T21:31:37.493Z,101639.91
2023-02-11T21:34:05.411Z,101637.34
2023-02-11T21:36:32.093Z,101637.28
2023-02-11T21:39:00.169Z,101645.38
2023-02-11T21:41:27.470Z,101649.00
2023-02-11T21:43:54.393Z,101642.88
2023-02-11T21:46:22.547Z,101651.56
2023-02-11T21:48:49.570Z,101659.34
2023-02-11T21:51:17.450Z,101654.03
2023-02-11T21:53:44.431Z,101648.75
2023-02-11T21:56:18.112Z,101648.88
2023-02-11T21:58:45.876Z,101657.50
2023-02-11T22:01:19.464Z,101664.47
2023-02-11T22:03:47.828Z,101668.75
2023-02-11T22:06:21.467Z,101670.50
2023-02-11T22:08:50.029Z,101674.81
2023-02-11T22:11:16.624Z,101673.91
2023-02-11T22:13:43.243Z,101673.91
2023-02-11T22:16:13.830Z,101664.47
2023-02-11T22:18:40.760Z,101664.50
2023-02-11T22:21:15.018Z,101673.16
2023-02-11T22:23:41.687Z,101669.72
2023-02-11T22:26:14.953Z,101678.56
2023-02-11T22:28:41.680Z,101668.91
2023-02-11T22:31:14.405Z,101668.00
2023-02-11T22:33:41.356Z,101668.75
2023-02-11T22:36:13.866Z,101667.88
2023-02-11T22:38:40.412Z,101649.50
2023-02-11T22:41:09.708Z,101648.63
2023-02-11T22:43:37.431Z,101646.84
2023-02-11T22:46:06.630Z,101652.19
2023-02-11T22:48:34.720Z,101654.00
2023-02-11T22:51:24.688Z,101660.03
2023-02-11T22:53:54.274Z,101653.97
2023-02-11T22:56:21.602Z,101661.78
2023-02-11T22:58:49.054Z,101659.19
2023-02-11T23:01:15.942Z,101663.56
2023-02-11T23:03:42.856Z,101665.34
2023-02-11T23:06:10.355Z,101661.84
2023-02-11T23:08:39.271Z,101663.66
2023-02-11T23:11:21.029Z,101669.69
2023-02-11T23:13:48.719Z,101666.25
2023-02-11T23:16:18.744Z,101669.69
2023-02-11T23:18:46.991Z,101669.53
2023-02-11T23:21:21.134Z,101672.94
2023-02-11T23:23:48.632Z,101673.03
2023-02-11T23:26:17.814Z,101672.13
2023-02-11T23:28:46.106Z,101675.63
2023-02-11T23:31:21.565Z,101679.88
2023-02-11T23:33:49.635Z,101680.75
2023-02-11T23:36:16.807Z,101675.59
2023-02-11T23:38:43.757Z,101675.59
2023-02-11T23:41:10.251Z,101676.50
2023-02-11T23:43:36.975Z,101683.44
2023-02-11T23:46:04.272Z,101683.44
2023-02-11T23:48:30.952Z,101695.69
2023-02-11T23:50:57.493Z,101693.88
2023-02-11T23:53:24.042Z,101692.16
2023-02-11T23:55:50.651Z,101688.69
2023-02-11T23:58:17.244Z,101690.47
